Joussard, Canada
Current Conditions -  °F | °C
As of 1:00 PM on Thursday 23 Oct 2014 (Local Time) from CYZH Reporting Station
Few Clouds Few Clouds  
Wind Chill: 41°   Ceiling: Unl
Heat Index: 45°   Visibility: 9mi
Dew Point: 37°   Wind: 6mph
Humidity: 76%   Direction: 110°ESE
Pressure: 29.38"   Gusts: NA
Location:  55.37°N, 115.93°W
Report Text: CYZH 231900Z AUTO 11005KT 9SM FEW130 07/03 A2938 RMK SLP966 DENSITY ALT 2000FT
Loading
Personal Weather Stations






























Interactive Weather Map
Tropical Storm Tracking
New forecast layout! Learn more

10-Day Weather Forecast

Advertisements
Track Severe Weather on mobile